Time;durP1;ratioP1;P1;durP2;ratioP2;P2;SDS_P1;SDS_P2;PMS_P1;PMS_P2;Temp;Humidity;BMP_temperature;BMP_pressure;BME280_temperature;BME280_humidity;BME280_pressure;Samples;Min_cycle;Max_cycle;Signal;HPM_P1;HPM_P2
2023/10/20 00:00:06;;;;;;;12.75;9.38;;;;;;;15.11;90.68;97789.91;4160125;28;20435;-64
2023/10/20 00:02:09;;;;;;;9.50;7.63;;;;;;;15.08;90.73;97799.66;4157810;28;20133;-64
2023/10/20 00:04:13;;;;;;;10.25;8.07;;;;;;;15.09;90.79;97798.75;4166044;28;20041;-64
2023/10/20 00:06:16;;;;;;;14.32;9.75;;;;;;;15.09;90.80;97801.34;4165974;28;20044;-64
2023/10/20 00:08:18;;;;;;;14.13;9.10;;;;;;;15.11;90.69;97789.91;4165590;28;20030;-64
2023/10/20 00:10:22;;;;;;;11.35;7.85;;;;;;;15.14;90.89;97791.50;4164697;28;20415;-63
2023/10/20 00:12:26;;;;;;;10.32;7.85;;;;;;;15.19;90.69;97793.00;4165789;28;20503;-63
2023/10/20 00:14:29;;;;;;;;;;;;;;;15.10;90.42;97785.59;4166243;28;20068;-63
2023/10/20 00:16:33;;;;;;;10.98;7.72;;;;;;;15.15;89.78;97787.97;4159321;28;19921;-63
2023/10/20 00:18:36;;;;;;;9.57;7.70;;;;;;;15.21;89.80;97785.06;4157097;28;20042;-62
2023/10/20 00:20:38;;;;;;;10.60;8.40;;;;;;;15.22;89.24;97784.16;4165357;28;20124;-63
2023/10/20 00:22:42;;;;;;;9.65;7.15;;;;;;;15.13;89.47;97777.59;4165684;28;20107;-63
2023/10/20 00:24:45;;;;;;;11.07;8.23;;;;;;;15.12;90.10;97782.88;4165824;28;20044;-63
2023/10/20 00:26:49;;;;;;;10.07;8.15;;;;;;;15.06;90.29;97781.41;4159937;28;20117;-63
2023/10/20 00:28:54;;;;;;;10.82;8.57;;;;;;;15.04;90.48;97771.94;4157021;28;20042;-63
2023/10/20 00:30:57;;;;;;;14.00;9.02;;;;;;;15.03;91.19;97767.63;4164336;28;20038;-63
2023/10/20 00:33:01;;;;;;;11.82;9.52;;;;;;;15.05;90.92;97761.38;4164304;28;20045;-63
2023/10/20 00:35:04;;;;;;;13.20;10.02;;;;;;;15.09;90.94;97757.72;4164306;28;20103;-63
2023/10/20 00:37:07;;;;;;;12.15;8.32;;;;;;;15.15;90.94;97753.97;4164180;28;20072;-63
2023/10/20 00:39:10;;;;;;;21.27;11.77;;;;;;;15.18;89.83;97743.34;4165150;28;20041;-63
2023/10/20 00:41:14;;;;;;;13.82;10.70;;;;;;;15.26;89.13;97746.44;4164146;28;20051;-63
2023/10/20 00:43:17;;;;;;;13.25;8.75;;;;;;;15.12;90.17;97748.88;4164161;28;20037;-63
2023/10/20 00:45:23;;;;;;;9.90;7.85;;;;;;;15.09;90.30;97746.41;4156311;28;20466;-63
2023/10/20 00:47:27;;;;;;;14.35;8.93;;;;;;;15.09;90.54;97754.25;4155524;28;20046;-63
2023/10/20 00:49:32;;;;;;;11.07;6.97;;;;;;;15.10;91.03;97761.16;4162495;28;20072;-63
2023/10/20 00:51:35;;;;;;;7.82;6.13;;;;;;;15.11;90.87;97760.25;4163906;28;20080;-63
2023/10/20 00:53:38;;;;;;;10.30;7.47;;;;;;;15.14;90.62;97749.63;4163784;28;20466;-63
2023/10/20 00:55:42;;;;;;;9.65;7.53;;;;;;;15.27;89.73;97740.25;4164009;28;20467;-63
2023/10/20 00:57:45;;;;;;;11.85;8.55;;;;;;;15.22;89.58;97726.56;4163642;28;20041;-63
2023/10/20 00:59:48;;;;;;;10.93;8.23;;;;;;;15.19;89.99;97729.34;4164062;28;20061;-63
2023/10/20 01:01:54;;;;;;;12.60;9.82;;;;;;;15.27;89.26;97726.34;4174027;28;20064;-63
2023/10/20 01:03:57;;;;;;;11.02;8.95;;;;;;;15.30;88.65;97724.44;4155549;28;20515;-63
2023/10/20 01:06:01;;;;;;;12.23;9.60;;;;;;;15.20;89.41;97710.09;4164163;28;20041;-63
2023/10/20 01:08:05;;;;;;;10.15;7.18;;;;;;;15.26;89.38;97703.69;4163518;28;20061;-63
2023/10/20 01:10:09;;;;;;;11.68;6.85;;;;;;;15.17;89.24;97710.22;4163724;28;20140;-63
2023/10/20 01:12:12;;;;;;;9.93;6.05;;;;;;;15.14;89.89;97699.91;4164901;28;20484;-63
2023/10/20 01:14:15;;;;;;;11.35;8.15;;;;;;;15.15;90.47;97693.78;4164944;28;20049;-63
2023/10/20 01:16:19;;;;;;;11.77;7.30;;;;;;;15.17;90.20;97682.31;4163579;28;20545;-63
2023/10/20 01:18:24;;;;;;;9.25;6.22;;;;;;;15.19;89.88;97684.84;4160395;28;20055;-63
2023/10/20 01:20:27;;;;;;;9.60;7.25;;;;;;;15.14;90.48;97678.97;4156477;28;20553;-63
2023/10/20 01:22:30;;;;;;;9.88;6.95;;;;;;;15.18;90.34;97675.28;4164730;28;20128;-63
2023/10/20 01:24:34;;;;;;;9.52;7.03;;;;;;;15.17;90.36;97677.06;4147151;28;20065;-63
2023/10/20 01:26:37;;;;;;;11.25;7.97;;;;;;;15.14;90.31;97674.63;4147050;28;20038;-63
2023/10/20 01:28:40;;;;;;;14.20;8.18;;;;;;;15.16;90.31;97669.31;4163183;28;20030;-63
2023/10/20 01:30:42;;;;;;;10.27;7.57;;;;;;;15.17;90.59;97665.75;4163411;28;20099;-63
2023/10/20 01:32:45;;;;;;;8.88;7.13;;;;;;;15.16;90.92;97658.84;4164697;28;20044;-63
2023/10/20 01:34:48;;;;;;;12.48;8.20;;;;;;;15.15;90.96;97663.19;4163499;28;20037;-63
2023/10/20 01:36:51;;;;;;;13.55;9.35;;;;;;;15.16;90.74;97656.22;4156171;28;20041;-63
2023/10/20 01:38:54;;;;;;;10.35;7.47;;;;;;;15.16;90.44;97654.44;4156543;28;20426;-63
2023/10/20 01:40:58;;;;;;;11.63;8.55;;;;;;;15.18;90.03;97644.72;4162707;28;20486;-63
2023/10/20 01:43:01;;;;;;;9.70;7.13;;;;;;;15.13;90.43;97641.50;4163342;28;20041;-63
2023/10/20 01:45:05;;;;;;;15.63;9.07;;;;;;;15.11;90.44;97637.28;4179791;28;20115;-63
2023/10/20 01:47:08;;;;;;;11.80;7.95;;;;;;;15.10;90.38;97636.44;4163185;28;20047;-63
2023/10/20 01:49:11;;;;;;;15.07;9.77;;;;;;;15.11;90.64;97630.28;4163056;28;20124;-63
2023/10/20 01:51:14;;;;;;;12.07;9.45;;;;;;;15.15;90.50;97623.13;4163234;28;20037;-64
2023/10/20 01:53:17;;;;;;;14.07;9.07;;;;;;;15.14;90.74;97621.41;4156292;28;20042;-63
2023/10/20 01:55:20;;;;;;;13.07;9.43;;;;;;;15.12;90.27;97626.72;4160265;28;20435;-63
2023/10/20 01:57:23;;;;;;;11.70;7.78;;;;;;;15.12;90.55;97625.88;4163035;28;20041;-63
2023/10/20 01:59:26;;;;;;;10.55;9.10;;;;;;;15.14;90.52;97605.72;4162916;28;20057;-63
2023/10/20 02:01:29;;;;;;;8.27;6.13;;;;;;;15.12;90.09;97603.19;4163035;28;20037;-63
2023/10/20 02:03:32;;;;;;;14.20;8.18;;;;;;;15.09;90.31;97592.88;4163035;28;20041;-63
2023/10/20 02:05:35;;;;;;;13.65;8.75;;;;;;;15.08;90.74;97592.94;4179642;28;20047;-63
2023/10/20 02:07:38;;;;;;;11.43;9.00;;;;;;;15.06;90.63;97585.19;4160349;28;20076;-63
2023/10/20 02:09:40;;;;;;;11.07;8.43;;;;;;;15.07;90.54;97579.03;4146764;28;20044;-63
2023/10/20 02:11:43;;;;;;;13.70;9.27;;;;;;;15.11;90.38;97569.25;4164106;28;20045;-63
2023/10/20 02:13:48;;;;;;;11.52;9.40;;;;;;;15.11;90.51;97553.53;4163025;28;20559;-63
2023/10/20 02:15:51;;;;;;;11.80;9.48;;;;;;;15.11;90.51;97548.31;4162984;28;20115;-63
2023/10/20 02:17:54;;;;;;;8.27;6.82;;;;;;;15.08;90.66;97548.47;4162625;28;20419;-63
2023/10/20 02:19:58;;;;;;;9.63;7.13;;;;;;;15.06;90.25;97545.94;4179316;28;20495;-63
2023/10/20 02:22:02;;;;;;;9.00;7.57;;;;;;;15.06;90.91;97542.47;4179352;28;20048;-63
2023/10/20 02:24:04;;;;;;;9.82;6.95;;;;;;;15.06;90.43;97550.31;4156611;28;20384;-63
2023/10/20 02:26:09;;;;;;;11.10;7.78;;;;;;;15.06;90.84;97556.41;4158125;28;20041;-63
2023/10/20 02:28:12;;;;;;;7.93;6.55;;;;;;;15.05;90.73;97538.16;4163659;28;20557;-63
2023/10/20 02:30:17;;;;;;;12.02;9.00;;;;;;;15.06;90.66;97545.09;4162807;28;20042;-63
2023/10/20 02:32:19;;;;;;;15.38;9.95;;;;;;;15.05;90.26;97533.75;4162789;28;20400;-63
2023/10/20 02:34:23;;;;;;;13.35;10.30;;;;;;;15.12;90.56;97534.31;4162954;28;20095;-63
2023/10/20 02:36:26;;;;;;;11.10;8.60;;;;;;;15.13;90.26;97512.47;4179243;28;20099;-63
2023/10/20 02:38:30;;;;;;;16.52;11.38;;;;;;;15.12;89.92;97510.75;4163611;28;20049;-63
2023/10/20 02:40:33;;;;;;;19.88;11.02;;;;;;;15.10;89.64;97510.84;4153456;28;20038;-63
2023/10/20 02:42:36;;;;;;;12.57;9.18;;;;;;;15.04;89.81;97505.06;4162028;28;20069;-63
2023/10/20 02:44:39;;;;;;;7.93;6.45;;;;;;;15.01;90.34;97486.00;4163851;28;20042;-63
2023/10/20 02:46:44;;;;;;;14.38;9.30;;;;;;;15.03;90.49;97472.84;4162564;28;20033;-63
2023/10/20 02:48:46;;;;;;;11.57;7.63;;;;;;;15.01;90.67;97467.69;4162476;28;20513;-63
2023/10/20 02:50:49;;;;;;;7.60;5.90;;;;;;;15.01;90.50;97480.75;4154303;28;20038;-63
2023/10/20 02:52:51;;;;;;;11.73;9.15;;;;;;;15.03;90.81;97482.47;4155894;28;20041;-64
2023/10/20 02:54:56;;;;;;;11.32;8.43;;;;;;;15.02;90.38;97460.66;4165909;28;20100;-63
2023/10/20 02:56:59;;;;;;;8.95;7.18;;;;;;;14.99;90.31;97461.66;4165677;28;20038;-63
2023/10/20 02:59:03;;;;;;;9.98;6.60;;;;;;;14.99;90.18;97466.06;4165430;28;20473;-63
2023/10/20 03:01:07;;;;;;;13.93;8.40;;;;;;;14.99;90.82;97472.13;4166910;28;20096;-64
2023/10/20 03:03:13;;;;;;;13.73;9.38;;;;;;;14.99;90.40;97471.31;4165668;28;20144;-64
2023/10/20 03:05:16;;;;;;;13.45;9.82;;;;;;;15.00;90.41;97465.97;4165736;28;20045;-64
2023/10/20 03:07:24;;;;;;;12.25;8.85;;;;;;;15.01;90.34;97459.00;4142413;28;20042;-64
2023/10/20 03:09:27;;;;;;;12.52;9.30;;;;;;;15.01;90.09;97452.00;4157364;28;20038;-64
2023/10/20 03:11:30;;;;;;;14.93;9.07;;;;;;;15.03;90.58;97441.44;4165577;28;20041;-64
2023/10/20 03:13:34;;;;;;;10.73;8.65;;;;;;;15.01;89.73;97438.06;4166817;28;20041;-64
2023/10/20 03:15:37;;;;;;;10.35;7.68;;;;;;;15.06;90.19;97436.03;4166735;28;20556;-64
2023/10/20 03:17:40;;;;;;;13.13;10.07;;;;;;;15.06;89.34;97424.75;4165171;28;20084;-64
2023/10/20 03:19:45;;;;;;;18.20;11.43;;;;;;;15.06;89.18;97422.13;4166562;28;20042;-64
2023/10/20 03:21:48;;;;;;;13.25;9.65;;;;;;;15.04;89.31;97416.13;4165429;28;20376;-64
2023/10/20 03:23:51;;;;;;;15.10;10.40;;;;;;;15.01;89.85;97414.53;4143754;28;20471;-64
2023/10/20 03:25:54;;;;;;;14.15;10.20;;;;;;;15.04;89.39;97406.50;4157011;28;20070;-64
2023/10/20 03:27:57;;;;;;;15.25;10.25;;;;;;;14.99;89.04;97398.88;4166197;28;20042;-64
2023/10/20 03:30:00;;;;;;;14.48;9.52;;;;;;;14.97;89.34;97382.44;4165251;28;20049;-64
2023/10/20 03:32:05;;;;;;;14.57;9.45;;;;;;;14.95;89.85;97368.59;4166914;28;20050;-64
2023/10/20 03:34:08;;;;;;;7.57;6.20;;;;;;;14.94;90.02;97368.69;4166402;28;20041;-64
2023/10/20 03:36:13;;;;;;;12.23;8.13;;;;;;;14.93;89.81;97378.28;4165229;28;20495;-64
2023/10/20 03:38:17;;;;;;;14.93;9.35;;;;;;;14.92;89.75;97381.84;4166088;28;20080;-64
2023/10/20 03:40:24;;;;;;;14.23;10.13;;;;;;;14.93;90.28;97375.69;4164888;28;20052;-64
2023/10/20 03:42:27;;;;;;;9.13;6.95;;;;;;;14.93;90.35;97382.69;4156346;28;20476;-64
2023/10/20 03:44:30;;;;;;;9.75;7.32;;;;;;;14.92;90.20;97379.25;4163387;28;20140;-64
2023/10/20 03:46:43;;;;;;;11.05;8.23;;;;;;;14.91;90.18;97385.38;4165173;28;20136;-64
2023/10/20 03:48:46;;;;;;;12.63;8.18;;;;;;;14.90;90.26;97375.00;4166116;28;20053;-64
2023/10/20 03:50:49;;;;;;;13.43;7.97;;;;;;;14.91;89.93;97379.28;4164990;28;20487;-64
2023/10/20 03:52:53;;;;;;;10.90;7.82;;;;;;;14.92;90.06;97381.00;4165138;28;20045;-64
2023/10/20 03:54:56;;;;;;;10.57;7.35;;;;;;;14.93;90.05;97377.47;4148360;28;20520;-64
2023/10/20 03:56:59;;;;;;;11.48;8.05;;;;;;;14.93;89.89;97362.59;4157335;28;20084;-64
2023/10/20 03:59:02;;;;;;;10.93;8.18;;;;;;;14.94;89.82;97359.06;4156392;28;20120;-64
2023/10/20 04:01:06;;;;;;;10.52;7.90;;;;;;;14.98;89.40;97347.50;4165966;28;20037;-64
2023/10/20 04:03:08;;;;;;;15.00;8.70;;;;;;;14.95;89.20;97345.06;4166015;28;20381;-64
2023/10/20 04:05:16;;;;;;;;;;;;;;;14.83;89.17;97343.97;4165926;28;20049;-64
2023/10/20 04:07:19;;;;;;;14.63;7.85;;;;;;;14.83;89.58;97330.88;4165978;28;19964;-64
2023/10/20 04:09:23;;;;;;;10.75;7.93;;;;;;;14.86;89.66;97327.22;4164540;28;20076;-64
2023/10/20 04:11:26;;;;;;;10.85;8.70;;;;;;;14.86;90.13;97324.63;4165891;28;20037;-64
2023/10/20 04:13:29;;;;;;;7.78;6.07;;;;;;;14.85;90.08;97330.78;4163673;28;20403;-64
2023/10/20 04:15:36;;;;;;;11.40;8.90;;;;;;;14.87;90.06;97318.47;4157587;28;20044;-64
2023/10/20 04:17:40;;;;;;;10.45;7.68;;;;;;;14.87;89.98;97310.63;4165430;28;20073;-64
2023/10/20 04:19:43;;;;;;;11.05;8.18;;;;;;;14.87;90.00;97308.00;4165761;28;20083;-64
2023/10/20 04:21:46;;;;;;;12.23;8.77;;;;;;;14.88;90.20;97295.75;4165624;28;20136;-64
2023/10/20 04:23:49;;;;;;;9.75;7.82;;;;;;;14.94;89.30;97285.81;4165662;28;20038;-64
2023/10/20 04:25:54;;;;;;;13.82;9.40;;;;;;;14.96;89.85;97273.50;4165674;28;20407;-64
2023/10/20 04:27:57;;;;;;;16.60;8.57;;;;;;;15.00;88.51;97264.56;4165342;28;20068;-64
2023/10/20 04:41:55;;;;;;;16.08;14.38;;;;;;;14.80;90.65;97207.28;4140176;28;20057;-64
2023/10/20 04:51:18;;;;;;;10.77;9.00;;;;;;;14.83;89.30;97165.25;4153552;28;20069;-64
2023/10/20 04:53:32;;;;;;;10.57;8.75;;;;;;;14.83;89.72;97155.66;4148885;28;20557;-64
2023/10/20 04:58:21;;;;;;;13.65;8.50;;;;;;;14.84;89.72;97138.19;4151217;28;20459;-64
2023/10/20 05:00:36;;;;;;;11.80;8.23;;;;;;;14.80;89.45;97147.13;4155693;28;20124;-64
2023/10/20 05:02:43;;;;;;;11.57;6.95;;;;;;;14.76;90.18;97151.69;4165302;28;20051;-64
2023/10/20 05:04:49;;;;;;;9.77;7.30;;;;;;;14.79;89.93;97166.34;4165066;28;20069;-64
2023/10/20 05:07:05;;;;;;;10.20;7.30;;;;;;;14.87;90.18;97155.47;4164892;28;20045;-64
2023/10/20 05:09:09;;;;;;;8.18;5.57;;;;;;;14.80;90.30;97155.81;4158759;28;20472;-64
2023/10/20 05:11:12;;;;;;;9.48;5.53;;;;;;;14.80;89.96;97150.56;4160897;28;20623;-64
2023/10/20 05:13:17;;;;;;;9.23;5.63;;;;;;;14.89;89.54;97137.91;4164954;28;20448;-64
2023/10/20 05:15:22;;;;;;;13.23;6.07;;;;;;;14.89;89.44;97119.63;4164518;28;20084;-64
2023/10/20 05:17:25;;;;;;;7.60;4.45;;;;;;;14.80;89.68;97106.13;4164185;28;20499;-64
2023/10/20 05:19:32;;;;;;;10.95;4.93;;;;;;;14.82;89.55;97101.66;4164779;28;20045;-64
2023/10/20 05:21:38;;;;;;;7.93;4.40;;;;;;;14.87;89.61;97103.19;4165096;28;20029;-64
2023/10/20 05:23:43;;;;;;;6.40;3.72;;;;;;;14.83;89.21;97099.88;4164767;28;20037;-64
2023/10/20 05:25:47;;;;;;;8.25;3.65;;;;;;;14.84;89.32;97096.34;4154492;28;20039;-64
2023/10/20 05:27:49;;;;;;;7.93;3.60;;;;;;;14.86;89.25;97076.16;4157228;28;20041;-64
2023/10/20 05:29:54;;;;;;;6.90;3.38;;;;;;;14.86;89.46;97073.56;4163460;28;20112;-64
2023/10/20 05:31:58;;;;;;;7.25;3.85;;;;;;;14.90;88.95;97061.16;4164612;28;20044;-64
2023/10/20 05:34:01;;;;;;;6.03;3.47;;;;;;;14.86;88.80;97049.19;4164623;28;20041;-64
2023/10/20 05:36:05;;;;;;;5.75;3.72;;;;;;;14.90;88.43;97042.84;4164565;28;20077;-64
2023/10/20 05:38:07;;;;;;;6.90;3.60;;;;;;;14.90;88.24;97027.97;4164318;28;20076;-64
2023/10/20 05:40:13;;;;;;;6.32;3.63;;;;;;;14.84;88.58;97036.19;4161845;28;20042;-64
2023/10/20 05:42:16;;;;;;;4.95;3.10;;;;;;;14.84;88.37;97033.59;4154895;28;20132;-64
2023/10/20 05:44:22;;;;;;;7.55;4.20;;;;;;;14.86;89.03;97036.94;4164477;28;20507;-64
2023/10/20 05:46:26;;;;;;;6.80;2.97;;;;;;;14.83;89.21;97022.28;4164426;28;20503;-64
2023/10/20 05:48:28;;;;;;;6.00;3.10;;;;;;;14.84;89.39;97020.50;4164151;28;20041;-64
2023/10/20 05:50:34;;;;;;;6.97;3.20;;;;;;;14.88;88.87;97023.78;4164358;28;20456;-64
2023/10/20 05:52:36;;;;;;;7.72;4.30;;;;;;;14.92;89.40;97036.59;4163266;28;20056;-64
2023/10/20 05:54:39;;;;;;;7.35;3.20;;;;;;;14.91;88.63;97032.28;4164323;28;20456;-64
2023/10/20 05:56:42;;;;;;;6.10;3.25;;;;;;;14.91;89.31;97024.44;4161942;28;20052;-64
2023/10/20 05:58:44;;;;;;;4.82;2.90;;;;;;;14.86;89.80;97010.78;4148125;28;20138;-64
2023/10/20 06:00:48;;;;;;;3.42;2.63;;;;;;;14.87;89.88;97012.47;4147828;28;20526;-64
2023/10/20 06:03:07;;;;;;;6.32;3.50;;;;;;;14.88;89.18;97014.16;4146701;28;20548;-64
2023/10/20 06:05:09;;;;;;;8.70;4.43;;;;;;;14.92;89.74;96999.13;4147895;28;20405;-64
2023/10/20 06:07:12;;;;;;;9.13;3.90;;;;;;;14.91;89.83;96993.06;4147716;28;20044;-64
2023/10/20 06:09:16;;;;;;;6.28;3.70;;;;;;;14.91;89.95;96994.81;4147634;28;20037;-64
2023/10/20 06:11:18;;;;;;;6.68;4.03;;;;;;;14.92;89.39;96988.66;4147808;28;20066;-64
2023/10/20 06:13:22;;;;;;;6.43;3.65;;;;;;;14.92;89.25;96994.75;4145230;28;20040;-64
2023/10/20 06:15:25;;;;;;;6.05;3.97;;;;;;;14.90;89.29;96991.38;4156236;28;20052;-64
2023/10/20 06:17:27;;;;;;;8.07;4.53;;;;;;;14.90;89.87;96990.53;4161848;28;20052;-64
2023/10/20 06:19:32;;;;;;;6.38;4.10;;;;;;;14.89;89.62;96976.59;4162876;28;20052;-64
2023/10/20 06:21:35;;;;;;;8.55;4.30;;;;;;;14.91;89.13;96963.44;4163947;28;20373;-64
2023/10/20 06:23:38;;;;;;;10.77;5.05;;;;;;;14.92;89.10;96958.13;4163835;28;20384;-64
2023/10/20 06:25:42;;;;;;;8.38;4.47;;;;;;;14.87;89.12;96954.94;4162331;28;20104;-64
2023/10/20 06:27:45;;;;;;;8.10;4.65;;;;;;;14.82;89.98;96949.13;4165336;28;20087;-64
2023/10/20 06:29:52;;;;;;;7.53;4.30;;;;;;;14.82;89.42;96933.44;4159551;28;20099;-64
2023/10/20 06:32:08;;;;;;;8.05;4.63;;;;;;;14.88;89.66;96927.00;4160898;28;20034;-64
2023/10/20 06:34:21;;;;;;;7.25;4.78;;;;;;;14.84;89.39;96914.13;4167407;28;20487;-64
2023/10/20 06:36:26;;;;;;;5.20;3.45;;;;;;;14.87;89.01;96897.41;4167287;28;20049;-64
2023/10/20 06:38:35;;;;;;;4.97;3.20;;;;;;;14.84;89.02;96892.38;4167051;28;20045;-64
2023/10/20 06:40:40;;;;;;;7.15;5.07;;;;;;;14.86;89.31;96892.28;4167281;28;20041;-64
2023/10/20 06:42:44;;;;;;;9.05;4.90;;;;;;;14.84;89.36;96871.44;4167163;28;20060;-64
2023/10/20 06:44:46;;;;;;;10.05;4.80;;;;;;;14.86;89.10;96866.94;4167455;28;20411;-64
2023/10/20 06:46:48;;;;;;;8.18;5.32;;;;;;;14.87;89.28;96860.81;4157227;28;20029;-64
2023/10/20 06:48:51;;;;;;;10.50;7.57;;;;;;;14.88;89.11;96864.25;4158680;28;20539;-64
2023/10/20 06:50:54;;;;;;;16.08;6.60;;;;;;;14.92;89.08;96853.53;4165351;28;20135;-64
2023/10/20 06:52:59;;;;;;;13.95;7.38;;;;;;;14.96;89.06;96848.94;4148062;28;20058;-64
2023/10/20 06:55:03;;;;;;;9.80;7.35;;;;;;;14.93;88.99;96843.91;4158124;28;20037;-64
2023/10/20 06:57:26;;;;;;;11.65;7.95;;;;;;;14.92;89.84;96847.44;4148839;28;20045;-63
2023/10/20 06:59:29;;;;;;;14.43;7.75;;;;;;;14.95;89.04;96853.34;4150121;28;20045;-64
2023/10/20 07:01:32;;;;;;;14.15;8.43;;;;;;;14.95;89.52;96850.72;4149475;28;20034;-64
2023/10/20 07:03:35;;;;;;;13.07;7.25;;;;;;;14.96;89.50;96860.22;4148037;28;20053;-64
2023/10/20 07:05:39;;;;;;;11.10;8.48;;;;;;;14.96;89.74;96841.91;4150370;28;20037;-64
2023/10/20 07:07:42;;;;;;;14.57;8.40;;;;;;;14.95;89.25;96835.03;4149943;28;20048;-64
2023/10/20 07:09:47;;;;;;;13.63;7.57;;;;;;;14.98;89.17;96834.84;4142477;28;20041;-64
2023/10/20 07:11:48;;;;;;;11.02;7.22;;;;;;;14.84;89.58;96825.22;4148500;28;20034;-63
2023/10/20 07:13:51;;;;;;;15.10;8.82;;;;;;;14.80;90.44;96828.09;4150123;28;20095;-63
2023/10/20 07:15:56;;;;;;;18.15;14.70;;;;;;;14.78;90.60;96832.59;4150223;28;20038;-64
2023/10/20 07:18:00;;;;;;;14.32;8.88;;;;;;;14.80;90.21;96838.56;4149668;28;20048;-63
2023/10/20 07:20:05;;;;;;;13.52;8.93;;;;;;;14.84;90.83;96850.53;4151097;28;20443;-63
2023/10/20 07:22:08;;;;;;;14.32;10.25;;;;;;;14.87;90.86;96855.56;4149962;28;20452;-63
2023/10/20 07:24:11;;;;;;;13.55;9.60;;;;;;;14.90;90.31;96858.00;4152381;28;20484;-63
2023/10/20 07:26:17;;;;;;;13.52;8.85;;;;;;;14.94;90.00;96859.50;4150125;28;20046;-63
2023/10/20 07:28:21;;;;;;;15.00;10.20;;;;;;;14.88;90.51;96838.94;4149630;28;20042;-63
2023/10/20 07:30:29;;;;;;;12.38;9.20;;;;;;;14.93;90.59;96849.94;4148576;28;20042;-64
2023/10/20 07:32:30;;;;;;;14.93;10.40;;;;;;;14.91;90.74;96838.75;4149881;28;20045;-63
2023/10/20 07:34:34;;;;;;;19.27;12.13;;;;;;;14.89;91.01;96832.75;4146624;28;20460;-65
2023/10/20 07:36:37;;;;;;;14.40;10.82;;;;;;;14.88;91.10;96831.09;4147581;28;20044;-65
2023/10/20 07:38:42;;;;;;;15.98;11.52;;;;;;;14.84;90.48;96827.00;4149630;28;20128;-65
2023/10/20 07:40:45;;;;;;;19.77;13.23;;;;;;;14.87;91.03;96813.72;4148081;28;20042;-65
2023/10/20 07:42:50;;;;;;;22.63;15.70;;;;;;;14.86;90.41;96819.88;4148429;28;20136;-65
2023/10/20 07:44:53;;;;;;;19.40;15.45;;;;;;;14.84;91.34;96825.22;4150689;28;20107;-65
2023/10/20 07:46:56;;;;;;;18.27;15.43;;;;;;;14.84;91.43;96838.28;4151589;28;20042;-65
2023/10/20 07:48:58;;;;;;;15.65;12.00;;;;;;;14.90;91.40;96833.63;4150054;28;20038;-64
2023/10/20 07:51:01;;;;;;;12.48;9.68;;;;;;;14.92;91.72;96848.28;4151320;28;20124;-65
2023/10/20 07:53:05;;;;;;;17.70;12.85;;;;;;;14.84;91.46;96851.34;4151380;28;20038;-65
2023/10/20 07:55:09;;;;;;;16.00;10.73;;;;;;;14.91;91.23;96864.91;4150440;28;20045;-65
2023/10/20 07:57:13;;;;;;;17.70;11.60;;;;;;;14.77;91.64;96857.06;4150109;28;20066;-64
2023/10/20 07:59:19;;;;;;;17.10;11.35;;;;;;;14.82;91.82;96862.84;4145579;28;20065;-67
2023/10/20 08:01:23;;;;;;;16.35;11.95;;;;;;;14.86;91.59;96880.03;4162295;28;20091;-67
2023/10/20 08:03:26;;;;;;;18.50;12.77;;;;;;;14.90;91.63;96878.91;4149300;28;20038;-67
2023/10/20 08:05:29;;;;;;;14.30;10.60;;;;;;;14.94;90.97;96895.28;4148235;28;20112;-67
2023/10/20 08:07:33;;;;;;;17.95;11.73;;;;;;;14.91;91.54;96891.06;4148840;28;20046;-67
2023/10/20 08:09:36;;;;;;;15.80;12.43;;;;;;;14.91;91.50;96887.59;4147895;28;20044;-67
2023/10/20 08:11:41;;;;;;;13.07;10.77;;;;;;;14.92;90.91;96895.38;4146336;28;20044;-67
2023/10/20 08:13:50;;;;;;;16.08;12.88;;;;;;;14.84;91.19;96898.44;4142049;28;20373;-67
2023/10/20 08:15:54;;;;;;;22.85;14.23;;;;;;;14.87;91.21;96901.81;4148257;28;20562;-67
2023/10/20 08:17:57;;;;;;;18.98;12.02;;;;;;;14.88;91.73;96900.84;4149049;28;20042;-67
2023/10/20 08:20:00;;;;;;;16.63;13.07;;;;;;;14.86;91.58;96905.34;4149343;28;20128;-67
2023/10/20 08:22:03;;;;;;;15.43;12.00;;;;;;;14.87;91.10;96909.66;4149325;28;20065;-67
2023/10/20 08:24:08;;;;;;;17.35;12.13;;;;;;;14.86;90.86;96911.41;4147844;28;20065;-67
2023/10/20 08:26:19;;;;;;;17.52;12.35;;;;;;;14.83;91.16;96927.28;4149547;28;20125;-67
2023/10/20 08:28:24;;;;;;;18.10;12.43;;;;;;;14.82;90.83;96938.66;4147828;28;20089;-67
2023/10/20 08:30:27;;;;;;;20.33;11.43;;;;;;;14.74;91.20;96938.31;4148238;28;20037;-67
2023/10/20 08:32:32;;;;;;;19.45;12.43;;;;;;;14.61;91.43;96939.03;4149044;28;20048;-67
2023/10/20 08:34:35;;;;;;;;;;;;;;;14.53;92.57;96954.28;4149387;28;20041;-67
2023/10/20 08:36:37;;;;;;;20.38;14.93;;;;;;;14.59;92.25;96959.16;4147869;28;19922;-67
2023/10/20 08:38:41;;;;;;;15.55;10.85;;;;;;;14.59;92.76;96960.94;4149103;28;20650;-67
2023/10/20 08:40:44;;;;;;;13.05;9.30;;;;;;;14.59;91.55;96961.78;4149092;28;20065;-67
2023/10/20 08:43:07;;;;;;;12.35;7.93;;;;;;;14.53;92.29;96961.28;4148966;28;20049;-67
2023/10/20 08:45:14;;;;;;;14.57;10.30;;;;;;;14.60;92.33;96984.38;4131516;28;20046;-67
2023/10/20 08:47:19;;;;;;;10.65;8.32;;;;;;;14.66;92.11;96973.59;4148931;28;20042;-67
2023/10/20 08:49:24;;;;;;;12.40;7.88;;;;;;;14.70;92.08;96983.88;4148728;28;20042;-67
2023/10/20 08:51:28;;;;;;;13.32;8.90;;;;;;;14.75;91.84;96982.66;4148830;28;20473;-67
2023/10/20 08:53:32;;;;;;;12.95;8.88;;;;;;;14.80;92.04;96980.59;4147885;28;20038;-67
2023/10/20 08:55:35;;;;;;;13.38;9.10;;;;;;;14.83;91.84;96990.03;4148840;28;20403;-67
2023/10/20 08:57:40;;;;;;;13.48;9.55;;;;;;;14.86;91.64;97000.31;4148552;28;20535;-67
2023/10/20 08:59:51;;;;;;;12.02;7.90;;;;;;;14.90;91.42;97001.84;4148799;28;20052;-67
2023/10/20 09:01:53;;;;;;;11.18;7.15;;;;;;;14.81;91.29;97007.63;4148775;28;20041;-67
2023/10/20 09:03:56;;;;;;;11.10;8.13;;;;;;;14.82;91.19;97024.97;4148567;28;20041;-67
2023/10/20 09:06:05;;;;;;;9.82;7.68;;;;;;;14.83;91.72;97027.53;4147500;28;20048;-67
2023/10/20 09:08:08;;;;;;;14.65;9.27;;;;;;;14.93;92.04;97037.44;4148442;28;20088;-67
2023/10/20 09:10:10;;;;;;;14.65;8.63;;;;;;;14.91;91.70;97047.13;4148610;28;20567;-67
2023/10/20 09:12:14;;;;;;;10.75;7.50;;;;;;;15.00;91.23;97050.06;4147385;28;20077;-67
2023/10/20 09:14:17;;;;;;;13.63;9.70;;;;;;;15.03;90.82;97053.44;4148638;28;20042;-67
2023/10/20 09:16:20;;;;;;;12.90;9.35;;;;;;;15.08;90.86;97057.44;4147228;28;20041;-67
2023/10/20 09:18:22;;;;;;;14.52;9.27;;;;;;;15.18;89.63;97057.75;4148214;28;20049;-67
2023/10/20 09:20:25;;;;;;;12.38;9.40;;;;;;;15.23;89.41;97049.63;4148449;28;20038;-68
2023/10/20 09:22:30;;;;;;;14.05;9.45;;;;;;;15.13;88.33;97046.72;4147259;28;20065;-67
2023/10/20 09:24:34;;;;;;;15.13;9.23;;;;;;;15.06;89.08;97055.88;4148280;28;20129;-67
2023/10/20 09:26:39;;;;;;;14.65;9.55;;;;;;;15.16;88.68;97064.84;4148153;28;20069;-67
2023/10/20 09:28:46;;;;;;;10.57;8.40;;;;;;;15.06;89.00;97056.69;4147023;28;20038;-67
2023/10/20 09:30:49;;;;;;;12.13;8.85;;;;;;;15.11;88.58;97051.19;4147087;28;20042;-67
2023/10/20 09:32:52;;;;;;;14.13;8.90;;;;;;;15.17;88.48;97062.16;4148256;28;20042;-67
2023/10/20 09:34:56;;;;;;;12.10;9.10;;;;;;;15.25;88.35;97051.22;4148359;28;20038;-67
2023/10/20 09:37:02;;;;;;;15.18;9.93;;;;;;;15.31;88.55;97053.47;4148372;28;20495;-67
2023/10/20 09:39:11;;;;;;;12.60;8.80;;;;;;;15.28;88.32;97058.88;4148063;28;20132;-67
2023/10/20 09:41:15;;;;;;;12.38;8.88;;;;;;;15.29;88.91;97071.03;4147088;28;20404;-67
2023/10/20 09:43:24;;;;;;;12.18;9.73;;;;;;;15.26;88.82;97070.38;4148112;28;20488;-67
2023/10/20 09:45:33;;;;;;;14.18;9.60;;;;;;;15.28;89.22;97069.34;4148173;28;20069;-67
2023/10/20 09:47:39;;;;;;;11.77;9.13;;;;;;;15.32;88.73;97073.47;4147824;28;20527;-67
2023/10/20 09:49:43;;;;;;;12.75;10.40;;;;;;;15.39;88.70;97065.25;4148188;28;20124;-67
2023/10/20 09:51:48;;;;;;;12.52;9.90;;;;;;;15.48;88.54;97067.34;4148165;28;20041;-67
2023/10/20 09:53:51;;;;;;;12.20;10.10;;;;;;;15.50;88.36;97057.59;4148022;28;20041;-67
2023/10/20 09:55:56;;;;;;;11.77;9.80;;;;;;;15.56;88.18;97065.06;4147955;28;20038;-67
2023/10/20 09:58:00;;;;;;;13.60;10.90;;;;;;;15.55;88.51;97060.78;4147831;28;20092;-67
2023/10/20 10:00:04;;;;;;;11.95;8.50;;;;;;;15.55;88.81;97058.16;4147925;28;20041;-67